sensor_id;sensor_type;location;lat;lon;timestamp;temperature;humidity
45319;DHT22;31057;48.498;32.260;2024-02-21T00:01:04;1.00;99.90
45319;DHT22;31057;48.498;32.260;2024-02-21T00:03:07;1.00;99.90
45319;DHT22;31057;48.498;32.260;2024-02-21T00:05:09;1.00;99.90
45319;DHT22;31057;48.498;32.260;2024-02-21T00:07:11;1.00;99.90
45319;DHT22;31057;48.498;32.260;2024-02-21T00:09:13;1.00;99.90
45319;DHT22;31057;48.498;32.260;2024-02-21T00:11:15;0.90;99.90
45319;DHT22;31057;48.498;32.260;2024-02-21T00:13:17;1.00;99.90
45319;DHT22;31057;48.498;32.260;2024-02-21T00:15:19;0.90;99.90
45319;DHT22;31057;48.498;32.260;2024-02-21T00:17:20;1.00;99.90
45319;DHT22;31057;48.498;32.260;2024-02-21T00:19:22;1.00;99.90
45319;DHT22;31057;48.498;32.260;2024-02-21T00:21:24;0.90;99.90
45319;DHT22;31057;48.498;32.260;2024-02-21T00:23:26;1.00;99.90
45319;DHT22;31057;48.498;32.260;2024-02-21T00:25:28;1.00;99.90
45319;DHT22;31057;48.498;32.260;2024-02-21T00:27:30;0.90;99.90
45319;DHT22;31057;48.498;32.260;2024-02-21T00:29:33;0.90;99.90
45319;DHT22;31057;48.498;32.260;2024-02-21T00:31:36;0.90;99.90
45319;DHT22;31057;48.498;32.260;2024-02-21T00:33:38;1.00;99.90
45319;DHT22;31057;48.498;32.260;2024-02-21T00:35:40;0.90;99.90
45319;DHT22;31057;48.498;32.260;2024-02-21T00:37:42;1.00;99.90
45319;DHT22;31057;48.498;32.260;2024-02-21T00:39:44;1.00;99.90
45319;DHT22;31057;48.498;32.260;2024-02-21T00:41:46;1.00;99.90
45319;DHT22;31057;48.498;32.260;2024-02-21T00:43:48;1.00;99.90
45319;DHT22;31057;48.498;32.260;2024-02-21T00:45:52;1.00;99.90
45319;DHT22;31057;48.498;32.260;2024-02-21T00:47:53;1.00;99.90
45319;DHT22;31057;48.498;32.260;2024-02-21T00:49:55;0.90;99.90
45319;DHT22;31057;48.498;32.260;2024-02-21T00:51:57;1.00;99.90
45319;DHT22;31057;48.498;32.260;2024-02-21T00:53:59;0.90;99.90
45319;DHT22;31057;48.498;32.260;2024-02-21T00:56:01;0.90;99.90
45319;DHT22;31057;48.498;32.260;2024-02-21T00:58:03;0.90;99.90
45319;DHT22;31057;48.498;32.260;2024-02-21T01:00:05;0.90;99.90
45319;DHT22;31057;48.498;32.260;2024-02-21T01:02:07;0.90;99.90
45319;DHT22;31057;48.498;32.260;2024-02-21T01:04:10;1.00;99.90
45319;DHT22;31057;48.498;32.260;2024-02-21T01:06:12;1.00;99.90
45319;DHT22;31057;48.498;32.260;2024-02-21T01:08:14;1.00;99.90
45319;DHT22;31057;48.498;32.260;2024-02-21T01:10:16;1.00;99.90
45319;DHT22;31057;48.498;32.260;2024-02-21T01:12:19;1.00;99.90
45319;DHT22;31057;48.498;32.260;2024-02-21T01:14:20;1.00;99.90
45319;DHT22;31057;48.498;32.260;2024-02-21T01:16:22;1.00;99.90
45319;DHT22;31057;48.498;32.260;2024-02-21T01:18:24;0.90;99.90
45319;DHT22;31057;48.498;32.260;2024-02-21T01:20:26;0.90;99.90
45319;DHT22;31057;48.498;32.260;2024-02-21T01:22:28;0.90;99.90
45319;DHT22;31057;48.498;32.260;2024-02-21T01:24:30;1.00;99.90
45319;DHT22;31057;48.498;32.260;2024-02-21T01:26:32;0.90;99.90
45319;DHT22;31057;48.498;32.260;2024-02-21T01:28:34;1.00;99.90
45319;DHT22;31057;48.498;32.260;2024-02-21T01:30:37;0.90;99.90
45319;DHT22;31057;48.498;32.260;2024-02-21T01:32:39;0.90;99.90
45319;DHT22;31057;48.498;32.260;2024-02-21T01:34:41;0.90;99.90
45319;DHT22;31057;48.498;32.260;2024-02-21T01:36:43;0.90;99.90
45319;DHT22;31057;48.498;32.260;2024-02-21T01:38:44;0.90;99.90
45319;DHT22;31057;48.498;32.260;2024-02-21T01:40:46;0.90;99.90
45319;DHT22;31057;48.498;32.260;2024-02-21T01:42:48;0.90;99.90
45319;DHT22;31057;48.498;32.260;2024-02-21T01:44:50;0.90;99.90
45319;DHT22;31057;48.498;32.260;2024-02-21T01:46:52;0.90;99.90
45319;DHT22;31057;48.498;32.260;2024-02-21T01:48:55;0.90;99.90
45319;DHT22;31057;48.498;32.260;2024-02-21T01:50:57;1.00;99.90
45319;DHT22;31057;48.498;32.260;2024-02-21T01:52:59;1.00;99.90
45319;DHT22;31057;48.498;32.260;2024-02-21T01:55:01;1.10;99.90
45319;DHT22;31057;48.498;32.260;2024-02-21T01:57:03;1.00;99.90
45319;DHT22;31057;48.498;32.260;2024-02-21T01:59:05;1.00;99.90
45319;DHT22;31057;48.498;32.260;2024-02-21T02:01:07;1.00;99.90
45319;DHT22;31057;48.498;32.260;2024-02-21T02:03:10;0.90;99.90
45319;DHT22;31057;48.498;32.260;2024-02-21T02:05:18;0.90;99.90
45319;DHT22;31057;48.498;32.260;2024-02-21T02:07:22;1.00;99.90
45319;DHT22;31057;48.498;32.260;2024-02-21T02:09:24;0.90;99.90
45319;DHT22;31057;48.498;32.260;2024-02-21T02:11:26;0.90;99.90
45319;DHT22;31057;48.498;32.260;2024-02-21T02:13:28;0.90;99.90
45319;DHT22;31057;48.498;32.260;2024-02-21T02:15:46;0.90;99.90
45319;DHT22;31057;48.498;32.260;2024-02-21T02:17:48;0.90;99.90
45319;DHT22;31057;48.498;32.260;2024-02-21T02:19:50;0.90;99.90
45319;DHT22;31057;48.498;32.260;2024-02-21T02:21:54;0.90;99.90
45319;DHT22;31057;48.498;32.260;2024-02-21T02:23:58;1.00;99.90
45319;DHT22;31057;48.498;32.260;2024-02-21T02:26:00;1.00;99.90
45319;DHT22;31057;48.498;32.260;2024-02-21T02:28:06;0.90;99.90
45319;DHT22;31057;48.498;32.260;2024-02-21T02:30:08;0.90;99.90
45319;DHT22;31057;48.498;32.260;2024-02-21T02:32:10;0.90;99.90
45319;DHT22;31057;48.498;32.260;2024-02-21T02:34:12;0.80;99.90
45319;DHT22;31057;48.498;32.260;2024-02-21T02:36:14;0.90;99.90
45319;DHT22;31057;48.498;32.260;2024-02-21T02:38:16;0.90;99.90
45319;DHT22;31057;48.498;32.260;2024-02-21T02:40:18;0.80;99.90
45319;DHT22;31057;48.498;32.260;2024-02-21T02:42:20;0.90;99.90
45319;DHT22;31057;48.498;32.260;2024-02-21T02:44:22;0.80;99.90
45319;DHT22;31057;48.498;32.260;2024-02-21T02:46:24;0.80;99.90
45319;DHT22;31057;48.498;32.260;2024-02-21T02:48:25;0.80;99.90
45319;DHT22;31057;48.498;32.260;2024-02-21T02:50:27;0.80;99.90
45319;DHT22;31057;48.498;32.260;2024-02-21T02:52:29;0.80;99.90
45319;DHT22;31057;48.498;32.260;2024-02-21T02:54:31;0.70;99.90
45319;DHT22;31057;48.498;32.260;2024-02-21T02:56:33;0.80;99.90
45319;DHT22;31057;48.498;32.260;2024-02-21T02:58:35;0.80;99.90
45319;DHT22;31057;48.498;32.260;2024-02-21T03:00:37;0.80;99.90
45319;DHT22;31057;48.498;32.260;2024-02-21T03:02:41;0.80;99.90
45319;DHT22;31057;48.498;32.260;2024-02-21T03:04:43;0.80;99.90
45319;DHT22;31057;48.498;32.260;2024-02-21T03:06:45;0.80;99.90
45319;DHT22;31057;48.498;32.260;2024-02-21T03:08:47;0.80;99.90
45319;DHT22;31057;48.498;32.260;2024-02-21T03:10:50;0.70;99.90
45319;DHT22;31057;48.498;32.260;2024-02-21T03:12:53;0.70;99.90
45319;DHT22;31057;48.498;32.260;2024-02-21T03:14:55;0.80;99.90
45319;DHT22;31057;48.498;32.260;2024-02-21T03:16:57;0.70;99.90
45319;DHT22;31057;48.498;32.260;2024-02-21T03:18:59;0.80;99.90
45319;DHT22;31057;48.498;32.260;2024-02-21T03:21:01;0.70;99.90
45319;DHT22;31057;48.498;32.260;2024-02-21T03:23:03;0.70;99.90
45319;DHT22;31057;48.498;32.260;2024-02-21T03:25:05;0.60;99.90
45319;DHT22;31057;48.498;32.260;2024-02-21T03:27:08;0.70;99.90
45319;DHT22;31057;48.498;32.260;2024-02-21T03:29:10;0.60;99.90
45319;DHT22;31057;48.498;32.260;2024-02-21T03:31:12;0.70;99.90
45319;DHT22;31057;48.498;32.260;2024-02-21T03:33:15;0.60;99.90
45319;DHT22;31057;48.498;32.260;2024-02-21T03:35:17;0.70;99.90
45319;DHT22;31057;48.498;32.260;2024-02-21T03:37:19;0.60;99.90
45319;DHT22;31057;48.498;32.260;2024-02-21T03:39:21;0.60;99.90
45319;DHT22;31057;48.498;32.260;2024-02-21T03:41:23;0.70;99.90
45319;DHT22;31057;48.498;32.260;2024-02-21T03:43:25;0.70;99.90
45319;DHT22;31057;48.498;32.260;2024-02-21T03:45:26;0.70;99.90
45319;DHT22;31057;48.498;32.260;2024-02-21T03:47:28;0.70;99.90
45319;DHT22;31057;48.498;32.260;2024-02-21T03:49:30;0.70;99.90
45319;DHT22;31057;48.498;32.260;2024-02-21T03:51:32;0.70;99.90
45319;DHT22;31057;48.498;32.260;2024-02-21T03:53:34;0.70;99.90
45319;DHT22;31057;48.498;32.260;2024-02-21T03:55:36;0.70;99.90
45319;DHT22;31057;48.498;32.260;2024-02-21T03:57:38;0.70;99.90
45319;DHT22;31057;48.498;32.260;2024-02-21T03:59:40;0.70;99.90
45319;DHT22;31057;48.498;32.260;2024-02-21T04:01:45;0.70;99.90
45319;DHT22;31057;48.498;32.260;2024-02-21T04:03:47;0.70;99.90
45319;DHT22;31057;48.498;32.260;2024-02-21T04:05:49;0.70;99.90
45319;DHT22;31057;48.498;32.260;2024-02-21T04:07:53;0.70;99.90
45319;DHT22;31057;48.498;32.260;2024-02-21T04:09:55;0.70;99.90
45319;DHT22;31057;48.498;32.260;2024-02-21T04:11:57;0.70;99.90
45319;DHT22;31057;48.498;32.260;2024-02-21T04:13:59;0.70;99.90
45319;DHT22;31057;48.498;32.260;2024-02-21T04:16:01;0.70;99.90
45319;DHT22;31057;48.498;32.260;2024-02-21T04:18:03;0.70;99.90
45319;DHT22;31057;48.498;32.260;2024-02-21T04:20:05;0.80;99.90
45319;DHT22;31057;48.498;32.260;2024-02-21T04:22:07;0.70;99.90
45319;DHT22;31057;48.498;32.260;2024-02-21T04:24:09;0.80;99.90
45319;DHT22;31057;48.498;32.260;2024-02-21T04:26:11;0.70;99.90
45319;DHT22;31057;48.498;32.260;2024-02-21T04:28:13;0.80;99.90
45319;DHT22;31057;48.498;32.260;2024-02-21T04:30:15;0.70;99.90
45319;DHT22;31057;48.498;32.260;2024-02-21T04:32:17;0.70;99.90
45319;DHT22;31057;48.498;32.260;2024-02-21T04:34:19;0.70;99.90
45319;DHT22;31057;48.498;32.260;2024-02-21T04:36:21;0.70;99.90
45319;DHT22;31057;48.498;32.260;2024-02-21T04:38:23;0.70;99.90
45319;DHT22;31057;48.498;32.260;2024-02-21T04:40:24;0.70;99.90
45319;DHT22;31057;48.498;32.260;2024-02-21T04:42:26;0.70;99.90
45319;DHT22;31057;48.498;32.260;2024-02-21T04:44:28;0.70;99.90
45319;DHT22;31057;48.498;32.260;2024-02-21T04:46:30;0.70;99.90
45319;DHT22;31057;48.498;32.260;2024-02-21T04:48:32;0.70;99.90
45319;DHT22;31057;48.498;32.260;2024-02-21T04:50:34;0.70;99.90
45319;DHT22;31057;48.498;32.260;2024-02-21T04:52:36;0.70;99.90
45319;DHT22;31057;48.498;32.260;2024-02-21T04:54:38;0.70;99.90
45319;DHT22;31057;48.498;32.260;2024-02-21T04:56:40;0.70;99.90
45319;DHT22;31057;48.498;32.260;2024-02-21T04:58:42;0.70;99.90
45319;DHT22;31057;48.498;32.260;2024-02-21T05:00:44;0.80;99.90
45319;DHT22;31057;48.498;32.260;2024-02-21T05:02:46;1.00;99.90
45319;DHT22;31057;48.498;32.260;2024-02-21T05:04:48;1.10;99.90
45319;DHT22;31057;48.498;32.260;2024-02-21T05:06:50;1.10;99.90
45319;DHT22;31057;48.498;32.260;2024-02-21T05:08:52;0.90;99.90
45319;DHT22;31057;48.498;32.260;2024-02-21T05:10:54;0.90;99.90
45319;DHT22;31057;48.498;32.260;2024-02-21T05:12:57;0.70;99.90
45319;DHT22;31057;48.498;32.260;2024-02-21T05:14:58;0.70;99.90
45319;DHT22;31057;48.498;32.260;2024-02-21T05:17:00;0.70;99.90
45319;DHT22;31057;48.498;32.260;2024-02-21T05:19:02;0.70;99.90
45319;DHT22;31057;48.498;32.260;2024-02-21T05:21:06;0.70;99.90
45319;DHT22;31057;48.498;32.260;2024-02-21T05:23:08;0.60;99.90
45319;DHT22;31057;48.498;32.260;2024-02-21T05:25:10;0.60;99.90
45319;DHT22;31057;48.498;32.260;2024-02-21T05:27:12;0.60;99.90
45319;DHT22;31057;48.498;32.260;2024-02-21T05:29:13;0.60;99.90
45319;DHT22;31057;48.498;32.260;2024-02-21T05:31:18;0.60;99.90
45319;DHT22;31057;48.498;32.260;2024-02-21T05:33:21;0.70;99.90
45319;DHT22;31057;48.498;32.260;2024-02-21T05:35:27;0.60;99.90
45319;DHT22;31057;48.498;32.260;2024-02-21T05:37:29;0.70;99.90
45319;DHT22;31057;48.498;32.260;2024-02-21T05:39:31;0.60;99.90
45319;DHT22;31057;48.498;32.260;2024-02-21T05:41:33;0.60;99.90
45319;DHT22;31057;48.498;32.260;2024-02-21T05:43:35;0.70;99.90
45319;DHT22;31057;48.498;32.260;2024-02-21T05:45:37;0.70;99.90
45319;DHT22;31057;48.498;32.260;2024-02-21T05:47:39;0.70;99.90
45319;DHT22;31057;48.498;32.260;2024-02-21T05:49:41;0.70;99.90
45319;DHT22;31057;48.498;32.260;2024-02-21T05:51:43;0.80;99.90
45319;DHT22;31057;48.498;32.260;2024-02-21T05:53:45;0.70;99.90
45319;DHT22;31057;48.498;32.260;2024-02-21T05:55:47;0.70;99.90
45319;DHT22;31057;48.498;32.260;2024-02-21T05:57:48;0.70;99.90
45319;DHT22;31057;48.498;32.260;2024-02-21T05:59:50;0.70;99.90
45319;DHT22;31057;48.498;32.260;2024-02-21T06:01:58;0.60;99.90
45319;DHT22;31057;48.498;32.260;2024-02-21T06:04:00;0.70;99.90
45319;DHT22;31057;48.498;32.260;2024-02-21T06:06:02;0.70;99.90
45319;DHT22;31057;48.498;32.260;2024-02-21T06:08:05;0.70;99.90
45319;DHT22;31057;48.498;32.260;2024-02-21T06:10:07;0.70;99.90
45319;DHT22;31057;48.498;32.260;2024-02-21T06:12:09;0.80;99.90
45319;DHT22;31057;48.498;32.260;2024-02-21T06:14:11;0.70;99.90
45319;DHT22;31057;48.498;32.260;2024-02-21T06:16:13;0.70;99.90
45319;DHT22;31057;48.498;32.260;2024-02-21T06:18:14;0.70;99.90
45319;DHT22;31057;48.498;32.260;2024-02-21T06:20:16;0.70;99.90
45319;DHT22;31057;48.498;32.260;2024-02-21T06:22:18;0.80;99.90
45319;DHT22;31057;48.498;32.260;2024-02-21T06:24:20;0.80;99.90
45319;DHT22;31057;48.498;32.260;2024-02-21T06:26:23;0.90;99.90
45319;DHT22;31057;48.498;32.260;2024-02-21T06:28:25;0.90;99.90
45319;DHT22;31057;48.498;32.260;2024-02-21T06:30:27;0.90;99.90
45319;DHT22;31057;48.498;32.260;2024-02-21T06:32:29;0.90;99.90
45319;DHT22;31057;48.498;32.260;2024-02-21T06:34:31;0.80;99.90
45319;DHT22;31057;48.498;32.260;2024-02-21T06:36:35;0.80;99.90
45319;DHT22;31057;48.498;32.260;2024-02-21T06:38:38;0.90;99.90
45319;DHT22;31057;48.498;32.260;2024-02-21T06:40:40;0.80;99.90
45319;DHT22;31057;48.498;32.260;2024-02-21T06:42:42;1.00;99.90
45319;DHT22;31057;48.498;32.260;2024-02-21T06:44:45;0.90;99.90
45319;DHT22;31057;48.498;32.260;2024-02-21T06:46:47;1.00;99.90
45319;DHT22;31057;48.498;32.260;2024-02-21T06:48:49;1.00;99.90
45319;DHT22;31057;48.498;32.260;2024-02-21T06:50:51;1.00;99.90
45319;DHT22;31057;48.498;32.260;2024-02-21T06:52:53;0.90;99.90
45319;DHT22;31057;48.498;32.260;2024-02-21T06:54:54;1.00;99.90
45319;DHT22;31057;48.498;32.260;2024-02-21T06:56:56;1.00;99.90
45319;DHT22;31057;48.498;32.260;2024-02-21T06:58:58;1.00;99.90
45319;DHT22;31057;48.498;32.260;2024-02-21T07:01:00;0.90;99.90
45319;DHT22;31057;48.498;32.260;2024-02-21T07:03:02;1.00;99.90
45319;DHT22;31057;48.498;32.260;2024-02-21T07:05:04;0.90;99.90
45319;DHT22;31057;48.498;32.260;2024-02-21T07:07:07;1.00;99.90
45319;DHT22;31057;48.498;32.260;2024-02-21T07:09:09;1.00;99.90
45319;DHT22;31057;48.498;32.260;2024-02-21T07:11:11;1.10;99.90
45319;DHT22;31057;48.498;32.260;2024-02-21T07:13:13;1.10;99.90
45319;DHT22;31057;48.498;32.260;2024-02-21T07:15:17;1.10;99.90
45319;DHT22;31057;48.498;32.260;2024-02-21T07:17:19;1.20;99.90
45319;DHT22;31057;48.498;32.260;2024-02-21T07:19:20;1.20;99.90
45319;DHT22;31057;48.498;32.260;2024-02-21T07:21:23;1.20;99.90
45319;DHT22;31057;48.498;32.260;2024-02-21T07:23:24;1.30;99.90
45319;DHT22;31057;48.498;32.260;2024-02-21T07:25:26;1.30;99.90
45319;DHT22;31057;48.498;32.260;2024-02-21T07:27:28;1.30;99.90
45319;DHT22;31057;48.498;32.260;2024-02-21T07:29:32;1.30;99.90
45319;DHT22;31057;48.498;32.260;2024-02-21T07:31:41;1.30;99.90
45319;DHT22;31057;48.498;32.260;2024-02-21T07:33:44;1.30;99.90
45319;DHT22;31057;48.498;32.260;2024-02-21T07:35:46;1.30;99.90
45319;DHT22;31057;48.498;32.260;2024-02-21T07:37:48;1.40;99.90
45319;DHT22;31057;48.498;32.260;2024-02-21T07:39:50;1.50;99.90
45319;DHT22;31057;48.498;32.260;2024-02-21T07:41:51;1.60;99.90
45319;DHT22;31057;48.498;32.260;2024-02-21T07:43:53;1.40;99.90
45319;DHT22;31057;48.498;32.260;2024-02-21T07:45:55;1.50;99.90
45319;DHT22;31057;48.498;32.260;2024-02-21T07:47:57;1.40;99.90
45319;DHT22;31057;48.498;32.260;2024-02-21T07:49:59;1.50;99.90
45319;DHT22;31057;48.498;32.260;2024-02-21T07:52:01;1.40;99.90
45319;DHT22;31057;48.498;32.260;2024-02-21T07:54:03;1.40;99.90
45319;DHT22;31057;48.498;32.260;2024-02-21T07:56:06;1.50;99.90
45319;DHT22;31057;48.498;32.260;2024-02-21T07:58:08;1.60;99.90
45319;DHT22;31057;48.498;32.260;2024-02-21T08:00:09;1.60;99.90
45319;DHT22;31057;48.498;32.260;2024-02-21T08:02:16;1.50;99.90
45319;DHT22;31057;48.498;32.260;2024-02-21T08:04:18;1.60;99.90
45319;DHT22;31057;48.498;32.260;2024-02-21T08:06:20;1.60;99.90
45319;DHT22;31057;48.498;32.260;2024-02-21T08:08:22;1.60;99.90
45319;DHT22;31057;48.498;32.260;2024-02-21T08:10:24;1.50;99.90
45319;DHT22;31057;48.498;32.260;2024-02-21T08:12:26;1.60;99.90
45319;DHT22;31057;48.498;32.260;2024-02-21T08:14:28;1.60;99.90
45319;DHT22;31057;48.498;32.260;2024-02-21T08:16:30;1.60;99.90
45319;DHT22;31057;48.498;32.260;2024-02-21T08:18:32;1.60;99.90
45319;DHT22;31057;48.498;32.260;2024-02-21T08:20:37;1.50;99.90
45319;DHT22;31057;48.498;32.260;2024-02-21T08:22:39;1.60;99.90
45319;DHT22;31057;48.498;32.260;2024-02-21T08:24:41;1.60;99.90
45319;DHT22;31057;48.498;32.260;2024-02-21T08:26:43;1.60;99.90
45319;DHT22;31057;48.498;32.260;2024-02-21T08:28:48;1.60;99.90
45319;DHT22;31057;48.498;32.260;2024-02-21T08:30:51;1.60;99.90
45319;DHT22;31057;48.498;32.260;2024-02-21T08:32:53;1.70;99.90
45319;DHT22;31057;48.498;32.260;2024-02-21T08:34:58;1.70;99.90
45319;DHT22;31057;48.498;32.260;2024-02-21T08:37:00;1.70;99.90
45319;DHT22;31057;48.498;32.260;2024-02-21T08:39:02;1.90;99.90
45319;DHT22;31057;48.498;32.260;2024-02-21T08:41:07;1.80;99.90
45319;DHT22;31057;48.498;32.260;2024-02-21T08:43:09;2.00;99.90
45319;DHT22;31057;48.498;32.260;2024-02-21T08:45:11;2.00;99.90
45319;DHT22;31057;48.498;32.260;2024-02-21T08:47:13;2.10;99.90
45319;DHT22;31057;48.498;32.260;2024-02-21T08:49:15;2.00;99.90
45319;DHT22;31057;48.498;32.260;2024-02-21T08:51:17;2.00;99.90
45319;DHT22;31057;48.498;32.260;2024-02-21T08:53:19;2.00;99.90
45319;DHT22;31057;48.498;32.260;2024-02-21T08:55:21;2.00;99.90
45319;DHT22;31057;48.498;32.260;2024-02-21T08:57:23;2.30;99.90
45319;DHT22;31057;48.498;32.260;2024-02-21T08:59:25;2.20;99.90
45319;DHT22;31057;48.498;32.260;2024-02-21T09:01:27;2.20;99.90
45319;DHT22;31057;48.498;32.260;2024-02-21T09:03:33;2.30;99.90
45319;DHT22;31057;48.498;32.260;2024-02-21T09:05:35;2.40;99.90
45319;DHT22;31057;48.498;32.260;2024-02-21T09:07:37;2.30;99.90
45319;DHT22;31057;48.498;32.260;2024-02-21T09:09:39;2.40;99.90
45319;DHT22;31057;48.498;32.260;2024-02-21T09:11:41;2.40;99.90
45319;DHT22;31057;48.498;32.260;2024-02-21T09:13:43;2.40;99.90
45319;DHT22;31057;48.498;32.260;2024-02-21T09:15:45;2.30;99.90
45319;DHT22;31057;48.498;32.260;2024-02-21T09:17:47;2.40;99.90
45319;DHT22;31057;48.498;32.260;2024-02-21T09:19:48;2.40;99.90
45319;DHT22;31057;48.498;32.260;2024-02-21T09:21:51;2.40;99.90
45319;DHT22;31057;48.498;32.260;2024-02-21T09:23:52;2.40;99.90
45319;DHT22;31057;48.498;32.260;2024-02-21T09:25:58;2.30;99.90
45319;DHT22;31057;48.498;32.260;2024-02-21T09:28:02;2.30;99.90
45319;DHT22;31057;48.498;32.260;2024-02-21T09:30:05;2.30;99.90
45319;DHT22;31057;48.498;32.260;2024-02-21T09:32:07;2.20;99.90
45319;DHT22;31057;48.498;32.260;2024-02-21T09:34:09;2.10;99.90
45319;DHT22;31057;48.498;32.260;2024-02-21T09:36:13;2.30;99.90
45319;DHT22;31057;48.498;32.260;2024-02-21T09:38:14;2.40;99.90
45319;DHT22;31057;48.498;32.260;2024-02-21T09:40:16;2.40;99.90
45319;DHT22;31057;48.498;32.260;2024-02-21T09:42:20;2.40;99.90
45319;DHT22;31057;48.498;32.260;2024-02-21T09:44:22;2.50;99.90
45319;DHT22;31057;48.498;32.260;2024-02-21T09:46:24;2.50;99.90
45319;DHT22;31057;48.498;32.260;2024-02-21T09:50:44;2.40;99.90
45319;DHT22;31057;48.498;32.260;2024-02-21T09:52:48;2.40;99.90
45319;DHT22;31057;48.498;32.260;2024-02-21T09:54:49;2.50;99.90
45319;DHT22;31057;48.498;32.260;2024-02-21T09:56:54;2.50;99.90
45319;DHT22;31057;48.498;32.260;2024-02-21T09:58:56;2.50;99.90
45319;DHT22;31057;48.498;32.260;2024-02-21T10:00:59;2.40;99.90
45319;DHT22;31057;48.498;32.260;2024-02-21T10:03:04;2.60;99.90
45319;DHT22;31057;48.498;32.260;2024-02-21T10:05:09;2.40;99.90
45319;DHT22;31057;48.498;32.260;2024-02-21T10:07:11;2.50;99.90
45319;DHT22;31057;48.498;32.260;2024-02-21T10:09:21;2.50;99.90
45319;DHT22;31057;48.498;32.260;2024-02-21T10:11:25;2.60;99.90
45319;DHT22;31057;48.498;32.260;2024-02-21T10:13:27;2.70;99.90
45319;DHT22;31057;48.498;32.260;2024-02-21T10:15:29;2.90;99.90
45319;DHT22;31057;48.498;32.260;2024-02-21T10:17:32;3.00;99.90
45319;DHT22;31057;48.498;32.260;2024-02-21T10:19:34;3.00;99.90
45319;DHT22;31057;48.498;32.260;2024-02-21T10:21:36;2.90;99.90
45319;DHT22;31057;48.498;32.260;2024-02-21T10:23:44;3.00;99.90
45319;DHT22;31057;48.498;32.260;2024-02-21T10:25:46;3.00;99.90
45319;DHT22;31057;48.498;32.260;2024-02-21T10:27:48;3.10;99.90
45319;DHT22;31057;48.498;32.260;2024-02-21T10:29:53;3.20;99.90
45319;DHT22;31057;48.498;32.260;2024-02-21T10:32:04;3.20;99.90
45319;DHT22;31057;48.498;32.260;2024-02-21T10:34:06;3.10;99.90
45319;DHT22;31057;48.498;32.260;2024-02-21T10:36:09;3.30;99.90
45319;DHT22;31057;48.498;32.260;2024-02-21T10:38:11;3.30;99.90
45319;DHT22;31057;48.498;32.260;2024-02-21T10:40:13;3.30;99.90
45319;DHT22;31057;48.498;32.260;2024-02-21T10:42:15;3.30;99.90
45319;DHT22;31057;48.498;32.260;2024-02-21T10:44:19;3.30;99.90
45319;DHT22;31057;48.498;32.260;2024-02-21T10:46:22;3.30;99.90
45319;DHT22;31057;48.498;32.260;2024-02-21T10:48:26;3.40;99.90
45319;DHT22;31057;48.498;32.260;2024-02-21T10:50:30;3.30;99.90
45319;DHT22;31057;48.498;32.260;2024-02-21T10:55:03;3.40;99.90
45319;DHT22;31057;48.498;32.260;2024-02-21T10:57:05;3.50;99.90
45319;DHT22;31057;48.498;32.260;2024-02-21T10:59:08;3.50;99.90
45319;DHT22;31057;48.498;32.260;2024-02-21T11:01:10;3.60;99.90
45319;DHT22;31057;48.498;32.260;2024-02-21T11:03:14;3.40;99.90
45319;DHT22;31057;48.498;32.260;2024-02-21T11:05:16;3.50;99.90
45319;DHT22;31057;48.498;32.260;2024-02-21T11:07:18;3.50;99.90
45319;DHT22;31057;48.498;32.260;2024-02-21T11:09:29;3.60;99.90
45319;DHT22;31057;48.498;32.260;2024-02-21T11:11:34;3.60;99.90
45319;DHT22;31057;48.498;32.260;2024-02-21T11:13:41;3.70;99.90
45319;DHT22;31057;48.498;32.260;2024-02-21T11:15:44;3.70;99.90
45319;DHT22;31057;48.498;32.260;2024-02-21T11:17:55;3.70;99.90
45319;DHT22;31057;48.498;32.260;2024-02-21T11:20:14;3.80;99.90
45319;DHT22;31057;48.498;32.260;2024-02-21T11:22:17;3.80;99.90
45319;DHT22;31057;48.498;32.260;2024-02-21T11:24:32;3.70;99.90
45319;DHT22;31057;48.498;32.260;2024-02-21T11:26:36;3.80;99.90
45319;DHT22;31057;48.498;32.260;2024-02-21T11:28:38;4.00;99.90
45319;DHT22;31057;48.498;32.260;2024-02-21T11:30:40;3.90;99.90
45319;DHT22;31057;48.498;32.260;2024-02-21T11:32:45;4.00;99.90
45319;DHT22;31057;48.498;32.260;2024-02-21T11:34:57;3.80;99.90
45319;DHT22;31057;48.498;32.260;2024-02-21T11:37:04;3.90;99.90
45319;DHT22;31057;48.498;32.260;2024-02-21T11:39:24;3.70;99.90
45319;DHT22;31057;48.498;32.260;2024-02-21T11:41:26;3.70;99.90
45319;DHT22;31057;48.498;32.260;2024-02-21T11:43:28;3.60;99.90
45319;DHT22;31057;48.498;32.260;2024-02-21T11:45:30;3.60;99.90
45319;DHT22;31057;48.498;32.260;2024-02-21T11:47:33;3.60;99.90
45319;DHT22;31057;48.498;32.260;2024-02-21T11:49:36;3.60;99.90
45319;DHT22;31057;48.498;32.260;2024-02-21T11:51:39;3.60;99.90
45319;DHT22;31057;48.498;32.260;2024-02-21T11:53:40;3.70;99.90
45319;DHT22;31057;48.498;32.260;2024-02-21T11:55:58;3.80;99.90
45319;DHT22;31057;48.498;32.260;2024-02-21T11:57:59;3.90;99.90
45319;DHT22;31057;48.498;32.260;2024-02-21T12:00:14;3.90;99.90
45319;DHT22;31057;48.498;32.260;2024-02-21T12:02:17;3.90;99.90
45319;DHT22;31057;48.498;32.260;2024-02-21T12:04:20;4.00;99.90
45319;DHT22;31057;48.498;32.260;2024-02-21T12:06:22;3.90;99.90
45319;DHT22;31057;48.498;32.260;2024-02-21T12:08:24;4.00;99.90
45319;DHT22;31057;48.498;32.260;2024-02-21T12:10:26;3.90;99.90
45319;DHT22;31057;48.498;32.260;2024-02-21T12:12:31;4.00;99.90
45319;DHT22;31057;48.498;32.260;2024-02-21T12:14:37;4.00;99.90
45319;DHT22;31057;48.498;32.260;2024-02-21T12:16:39;4.10;99.90
45319;DHT22;31057;48.498;32.260;2024-02-21T12:18:41;4.10;99.90
45319;DHT22;31057;48.498;32.260;2024-02-21T12:20:43;4.10;99.90
45319;DHT22;31057;48.498;32.260;2024-02-21T12:22:49;4.10;99.90
45319;DHT22;31057;48.498;32.260;2024-02-21T12:24:52;4.10;99.90
45319;DHT22;31057;48.498;32.260;2024-02-21T12:26:55;4.20;99.90
45319;DHT22;31057;48.498;32.260;2024-02-21T12:28:57;4.20;99.90
45319;DHT22;31057;48.498;32.260;2024-02-21T12:30:59;4.20;99.90
45319;DHT22;31057;48.498;32.260;2024-02-21T12:33:01;4.30;99.90
45319;DHT22;31057;48.498;32.260;2024-02-21T12:35:04;4.20;99.90
45319;DHT22;31057;48.498;32.260;2024-02-21T12:37:06;4.20;99.90
45319;DHT22;31057;48.498;32.260;2024-02-21T12:39:09;4.30;99.90
45319;DHT22;31057;48.498;32.260;2024-02-21T12:41:10;4.30;99.90
45319;DHT22;31057;48.498;32.260;2024-02-21T12:43:12;4.30;99.90
45319;DHT22;31057;48.498;32.260;2024-02-21T12:45:17;4.30;99.90
45319;DHT22;31057;48.498;32.260;2024-02-21T12:47:19;4.40;99.90
45319;DHT22;31057;48.498;32.260;2024-02-21T12:49:25;4.30;99.90
45319;DHT22;31057;48.498;32.260;2024-02-21T12:51:29;4.40;99.90
45319;DHT22;31057;48.498;32.260;2024-02-21T12:53:31;4.60;99.90
45319;DHT22;31057;48.498;32.260;2024-02-21T12:55:35;4.60;99.90
45319;DHT22;31057;48.498;32.260;2024-02-21T12:57:37;4.50;99.90
45319;DHT22;31057;48.498;32.260;2024-02-21T12:59:38;4.60;99.90